Meteo Giornale » Osservazioni meteo Gran Bretagna » Farnborough

ore: 03:50 - Osservazioni Meteo Farnborough
Lat. 51° 17' N Lon. 0° 46' W Alt. 65 metri s.l.m.

coperto Europe/London

14 °C

Coperto

Temp. 24 Ore

6 °C

21 °C

Ovest

14.8 Km/h

Dew point 11 °C

Umidità 82 %

Visibilità  10 Km

Il sole sorge alle ore 06:49

Il sole tramonta alle ore 19:01

Data e Ora Cielo e Fenomeni T °C DP °C Um. % Pres. hPa Vis. km Vento km/h
Oggi h: 03:50 coperto Coperto 14 11 82 1023 10 O 14.8
Oggi h: 03:20 coperto Coperto 13 11 87 1023 10 O/SO 13
Oggi h: 02:50 coperto Coperto 13 11 87 1023 10 O 9.3
Oggi h: 01:50 molto_nuvoloso Molto Nuvoloso 12 10 87 1024 10 O/SO 9.3
Oggi h: 01:20 sereno Sereno 11 10 93 1024 10 O/SO 9.3
Oggi h: 00:50 sereno Sereno 10 9 93 1024 10 O/SO 11.1
Oggi h: 00:20 sereno Sereno 11 9 87 1024 10 O/SO 9.3
Ieri h: 23:50 sereno Sereno 11 9 87 1024 10 SO 9.3
Ieri h: 23:20 sereno Sereno 10 9 93 1024 10 SO 9.3
Ieri h: 22:50 sereno Sereno 10 9 93 1024 10 SO 7.4
Ieri h: 22:20 sereno Sereno 11 9 87 1024 10 SO 7.4
Ieri h: 21:50 sereno Sereno 11 10 93 1025 10 O/SO 9.3
Ieri h: 21:20 sereno Sereno 12 10 87 1025 10 S/SO 7.4
Ieri h: 20:50 sereno Sereno 13 10 81 1025 10 SO 7.4
Ieri h: 20:20 sereno Sereno 14 11 82 1025 10 SO 7.4
Ieri h: 19:50 molto_nuvoloso Molto Nuvoloso 16 11 72 1025 10 O 7.4
Ieri h: 19:20 coperto Coperto 17 12 72 1025 10 O/NO 11.1
Ieri h: 18:50 nuvoloso Nuvoloso 17 12 72 1025 10 O/NO 9.3
Ieri h: 18:20 nuvoloso Nuvoloso 18 12 67 1025 10 SO 13
Ieri h: 17:50 nuvoloso Nuvoloso 19 12 63 1025 10 O/SO 13
Ieri h: 16:50 sereno Sereno 20 12 59 1025 10 O/SO 18.5
Ieri h: 14:50 molto_nuvoloso Molto Nuvoloso 21 12 56 1027 10 SO 16.7
Ieri h: 14:20 molto_nuvoloso Molto Nuvoloso 21 12 56 1027 10 O/SO 16.7
Ieri h: 13:50 poco_nuvoloso Poco Nuvoloso 20 12 59 1027 10 SO 14.8
Ieri h: 13:20 nuvoloso Nuvoloso 20 12 59 1028 10 O/SO 16.7
Ieri h: 12:50 nuvoloso Nuvoloso 20 12 59 1028 10 O/SO 14.8
Ieri h: 12:20 sereno Sereno 20 12 59 1028 10 SO 11.1
Ieri h: 11:50 poco_nuvoloso Poco Nuvoloso 19 12 63 1029 10 O 7.4
Ieri h: 11:20 sereno Sereno 19 12 63 1029 10 O/SO 11.1
Ieri h: 10:50 sereno Sereno 18 12 67 1029 10 O/SO 9.3
Ieri h: 10:20 sereno Sereno 18 13 72 1029 10 O/SO 7.4
Ieri h: 09:50 sereno Sereno 16 13 82 1029 10 N 1.8
Ieri h: 09:20 sereno Sereno 15 12 82 1029 10 N 0
Ieri h: 08:50 sereno Sereno 12 11 93 1029 10 N 0
Ieri h: 08:20 sereno Nebbia nelle Vicinanze 9 9 100 1029 10 N 1.8
Ieri h: 07:50 sereno Nebbia nelle Vicinanze 7 6 93 1029 10 N 1.8
Ieri h: 07:20 nebbia Banco di Nebbia 7 6 93 1029 10 N 3.7
Ieri h: 06:50 sereno Sereno 6 6 100 1029 10 N 3.7
Ieri h: 06:20 sereno Sereno 7 6 93 1029 10 N 0
Ieri h: 05:50 sereno Sereno 7 6 93 1029 10 N 3.7
Ieri h: 04:50 sereno Sereno 7 6 93 1029 10 N 3.7